sensor_id;sensor_type;location;lat;lon;timestamp;P1;durP1;ratioP1;P2;durP2;ratioP2
32172;SDS011;18679;45.190;5.722;2023-04-25T00:00:50;3.05;;;1.48;;
32172;SDS011;18679;45.190;5.722;2023-04-25T00:03:52;4.40;;;1.30;;
32172;SDS011;18679;45.190;5.722;2023-04-25T00:06:53;3.75;;;1.42;;
32172;SDS011;18679;45.190;5.722;2023-04-25T00:09:54;3.20;;;1.15;;
32172;SDS011;18679;45.190;5.722;2023-04-25T00:12:55;3.95;;;1.25;;
32172;SDS011;18679;45.190;5.722;2023-04-25T00:15:57;4.05;;;1.40;;
32172;SDS011;18679;45.190;5.722;2023-04-25T00:18:58;3.03;;;1.27;;
32172;SDS011;18679;45.190;5.722;2023-04-25T00:22:00;4.95;;;1.30;;
32172;SDS011;18679;45.190;5.722;2023-04-25T00:25:00;1.67;;;1.05;;
32172;SDS011;18679;45.190;5.722;2023-04-25T00:28:03;2.45;;;1.23;;
32172;SDS011;18679;45.190;5.722;2023-04-25T00:31:04;5.25;;;1.75;;
32172;SDS011;18679;45.190;5.722;2023-04-25T00:34:06;2.22;;;1.42;;
32172;SDS011;18679;45.190;5.722;2023-04-25T00:37:09;4.78;;;1.67;;
32172;SDS011;18679;45.190;5.722;2023-04-25T00:40:10;3.67;;;1.70;;
32172;SDS011;18679;45.190;5.722;2023-04-25T00:43:12;2.85;;;1.30;;
32172;SDS011;18679;45.190;5.722;2023-04-25T00:46:13;9.57;;;1.85;;
32172;SDS011;18679;45.190;5.722;2023-04-25T00:49:14;3.38;;;1.88;;
32172;SDS011;18679;45.190;5.722;2023-04-25T00:52:17;4.10;;;1.80;;
32172;SDS011;18679;45.190;5.722;2023-04-25T00:55:18;2.50;;;1.40;;
32172;SDS011;18679;45.190;5.722;2023-04-25T00:58:20;2.10;;;1.23;;
32172;SDS011;18679;45.190;5.722;2023-04-25T01:01:21;5.00;;;1.70;;
32172;SDS011;18679;45.190;5.722;2023-04-25T01:04:23;3.42;;;1.27;;
32172;SDS011;18679;45.190;5.722;2023-04-25T01:07:24;2.30;;;1.20;;
32172;SDS011;18679;45.190;5.722;2023-04-25T01:10:25;3.17;;;1.50;;
32172;SDS011;18679;45.190;5.722;2023-04-25T01:13:28;4.57;;;1.50;;
32172;SDS011;18679;45.190;5.722;2023-04-25T01:16:29;3.03;;;1.77;;
32172;SDS011;18679;45.190;5.722;2023-04-25T01:19:31;4.60;;;1.30;;
32172;SDS011;18679;45.190;5.722;2023-04-25T01:22:32;3.25;;;1.67;;
32172;SDS011;18679;45.190;5.722;2023-04-25T01:25:33;4.75;;;1.42;;
32172;SDS011;18679;45.190;5.722;2023-04-25T01:28:35;6.90;;;1.30;;
32172;SDS011;18679;45.190;5.722;2023-04-25T01:31:37;2.47;;;1.35;;
32172;SDS011;18679;45.190;5.722;2023-04-25T01:34:39;3.42;;;1.13;;
32172;SDS011;18679;45.190;5.722;2023-04-25T01:37:41;8.23;;;1.65;;
32172;SDS011;18679;45.190;5.722;2023-04-25T01:40:44;2.13;;;1.50;;
32172;SDS011;18679;45.190;5.722;2023-04-25T01:43:47;3.90;;;1.52;;
32172;SDS011;18679;45.190;5.722;2023-04-25T01:46:48;2.28;;;1.30;;
32172;SDS011;18679;45.190;5.722;2023-04-25T01:49:49;2.40;;;1.10;;
32172;SDS011;18679;45.190;5.722;2023-04-25T01:52:50;8.13;;;1.55;;
32172;SDS011;18679;45.190;5.722;2023-04-25T01:55:53;5.15;;;1.52;;
32172;SDS011;18679;45.190;5.722;2023-04-25T01:58:56;5.35;;;1.52;;
32172;SDS011;18679;45.190;5.722;2023-04-25T02:02:17;2.90;;;1.48;;
32172;SDS011;18679;45.190;5.722;2023-04-25T02:05:18;2.38;;;1.35;;
32172;SDS011;18679;45.190;5.722;2023-04-25T02:08:19;3.60;;;1.25;;
32172;SDS011;18679;45.190;5.722;2023-04-25T02:11:20;3.00;;;1.48;;
32172;SDS011;18679;45.190;5.722;2023-04-25T02:14:34;3.55;;;1.33;;
32172;SDS011;18679;45.190;5.722;2023-04-25T02:17:51;3.92;;;1.42;;
32172;SDS011;18679;45.190;5.722;2023-04-25T02:20:56;3.65;;;1.50;;
32172;SDS011;18679;45.190;5.722;2023-04-25T02:23:57;8.32;;;1.52;;
32172;SDS011;18679;45.190;5.722;2023-04-25T02:26:59;2.65;;;1.25;;
32172;SDS011;18679;45.190;5.722;2023-04-25T02:30:00;1.80;;;1.30;;
32172;SDS011;18679;45.190;5.722;2023-04-25T02:33:01;3.15;;;1.33;;
32172;SDS011;18679;45.190;5.722;2023-04-25T02:36:03;5.05;;;1.40;;
32172;SDS011;18679;45.190;5.722;2023-04-25T02:39:04;1.85;;;1.50;;
32172;SDS011;18679;45.190;5.722;2023-04-25T02:42:05;2.20;;;1.48;;
32172;SDS011;18679;45.190;5.722;2023-04-25T02:45:07;3.13;;;1.92;;
32172;SDS011;18679;45.190;5.722;2023-04-25T02:48:08;2.05;;;1.25;;
32172;SDS011;18679;45.190;5.722;2023-04-25T02:51:09;3.78;;;1.45;;
32172;SDS011;18679;45.190;5.722;2023-04-25T02:54:11;1.88;;;1.20;;
32172;SDS011;18679;45.190;5.722;2023-04-25T02:57:15;2.75;;;1.38;;
32172;SDS011;18679;45.190;5.722;2023-04-25T03:00:16;3.42;;;1.42;;
32172;SDS011;18679;45.190;5.722;2023-04-25T03:03:17;3.65;;;1.45;;
32172;SDS011;18679;45.190;5.722;2023-04-25T03:06:22;4.40;;;1.40;;
32172;SDS011;18679;45.190;5.722;2023-04-25T03:09:22;6.18;;;1.40;;
32172;SDS011;18679;45.190;5.722;2023-04-25T03:12:25;3.30;;;1.50;;
32172;SDS011;18679;45.190;5.722;2023-04-25T03:15:26;7.72;;;1.52;;
32172;SDS011;18679;45.190;5.722;2023-04-25T03:18:29;2.92;;;1.45;;
32172;SDS011;18679;45.190;5.722;2023-04-25T03:21:31;11.13;;;1.80;;
32172;SDS011;18679;45.190;5.722;2023-04-25T03:24:33;1.95;;;1.35;;
32172;SDS011;18679;45.190;5.722;2023-04-25T03:27:35;4.70;;;1.35;;
32172;SDS011;18679;45.190;5.722;2023-04-25T03:30:36;11.38;;;1.30;;
32172;SDS011;18679;45.190;5.722;2023-04-25T03:33:37;4.43;;;1.77;;
32172;SDS011;18679;45.190;5.722;2023-04-25T03:36:38;2.00;;;1.50;;
32172;SDS011;18679;45.190;5.722;2023-04-25T03:39:39;3.00;;;1.52;;
32172;SDS011;18679;45.190;5.722;2023-04-25T03:42:40;5.88;;;1.60;;
32172;SDS011;18679;45.190;5.722;2023-04-25T03:45:41;5.40;;;1.75;;
32172;SDS011;18679;45.190;5.722;2023-04-25T03:48:43;5.45;;;2.25;;
32172;SDS011;18679;45.190;5.722;2023-04-25T03:51:48;12.68;;;2.05;;
32172;SDS011;18679;45.190;5.722;2023-04-25T03:54:49;6.93;;;1.80;;
32172;SDS011;18679;45.190;5.722;2023-04-25T03:57:53;6.00;;;1.65;;
32172;SDS011;18679;45.190;5.722;2023-04-25T04:00:54;13.73;;;2.13;;
32172;SDS011;18679;45.190;5.722;2023-04-25T04:03:55;4.88;;;1.83;;
32172;SDS011;18679;45.190;5.722;2023-04-25T04:06:57;6.78;;;1.98;;
32172;SDS011;18679;45.190;5.722;2023-04-25T04:10:02;5.20;;;1.58;;
32172;SDS011;18679;45.190;5.722;2023-04-25T04:13:09;2.90;;;1.67;;
32172;SDS011;18679;45.190;5.722;2023-04-25T04:16:10;7.32;;;1.80;;
32172;SDS011;18679;45.190;5.722;2023-04-25T04:19:11;8.38;;;2.17;;
32172;SDS011;18679;45.190;5.722;2023-04-25T04:22:17;2.42;;;1.60;;
32172;SDS011;18679;45.190;5.722;2023-04-25T04:25:19;3.45;;;1.85;;
32172;SDS011;18679;45.190;5.722;2023-04-25T04:28:40;8.85;;;1.98;;
32172;SDS011;18679;45.190;5.722;2023-04-25T04:32:05;9.20;;;2.03;;
32172;SDS011;18679;45.190;5.722;2023-04-25T04:35:07;2.83;;;1.73;;
32172;SDS011;18679;45.190;5.722;2023-04-25T04:38:09;6.15;;;2.22;;
32172;SDS011;18679;45.190;5.722;2023-04-25T04:41:12;4.03;;;1.73;;
32172;SDS011;18679;45.190;5.722;2023-04-25T04:44:42;2.30;;;1.80;;
32172;SDS011;18679;45.190;5.722;2023-04-25T04:47:56;5.57;;;1.80;;
32172;SDS011;18679;45.190;5.722;2023-04-25T04:51:06;5.65;;;2.25;;
32172;SDS011;18679;45.190;5.722;2023-04-25T04:54:19;8.80;;;2.00;;
32172;SDS011;18679;45.190;5.722;2023-04-25T04:57:35;3.08;;;2.13;;
32172;SDS011;18679;45.190;5.722;2023-04-25T05:00:55;10.68;;;2.30;;
32172;SDS011;18679;45.190;5.722;2023-04-25T05:04:07;5.28;;;2.30;;
32172;SDS011;18679;45.190;5.722;2023-04-25T05:07:46;3.58;;;1.70;;
32172;SDS011;18679;45.190;5.722;2023-04-25T05:11:17;3.90;;;1.83;;
32172;SDS011;18679;45.190;5.722;2023-04-25T05:14:30;7.30;;;2.00;;
32172;SDS011;18679;45.190;5.722;2023-04-25T05:18:00;4.85;;;2.10;;
32172;SDS011;18679;45.190;5.722;2023-04-25T05:21:13;3.97;;;1.98;;
32172;SDS011;18679;45.190;5.722;2023-04-25T05:24:30;8.40;;;1.90;;
32172;SDS011;18679;45.190;5.722;2023-04-25T05:27:40;10.25;;;2.05;;
32172;SDS011;18679;45.190;5.722;2023-04-25T05:30:50;5.72;;;1.95;;
32172;SDS011;18679;45.190;5.722;2023-04-25T05:34:00;6.32;;;1.80;;
32172;SDS011;18679;45.190;5.722;2023-04-25T05:37:13;5.18;;;2.10;;
32172;SDS011;18679;45.190;5.722;2023-04-25T05:40:25;3.60;;;1.55;;
32172;SDS011;18679;45.190;5.722;2023-04-25T05:43:44;6.78;;;2.20;;
32172;SDS011;18679;45.190;5.722;2023-04-25T05:47:07;5.97;;;2.35;;
32172;SDS011;18679;45.190;5.722;2023-04-25T05:50:28;7.75;;;2.05;;
32172;SDS011;18679;45.190;5.722;2023-04-25T05:53:49;5.97;;;2.15;;
32172;SDS011;18679;45.190;5.722;2023-04-25T05:56:51;11.57;;;2.20;;
32172;SDS011;18679;45.190;5.722;2023-04-25T05:59:52;5.82;;;2.00;;
32172;SDS011;18679;45.190;5.722;2023-04-25T06:02:54;8.32;;;2.50;;
32172;SDS011;18679;45.190;5.722;2023-04-25T06:05:55;7.80;;;2.47;;
32172;SDS011;18679;45.190;5.722;2023-04-25T06:08:56;7.22;;;2.30;;
32172;SDS011;18679;45.190;5.722;2023-04-25T06:11:57;5.95;;;1.92;;
32172;SDS011;18679;45.190;5.722;2023-04-25T06:14:59;3.75;;;1.70;;
32172;SDS011;18679;45.190;5.722;2023-04-25T06:18:00;5.20;;;1.77;;
32172;SDS011;18679;45.190;5.722;2023-04-25T06:21:01;3.88;;;1.98;;
32172;SDS011;18679;45.190;5.722;2023-04-25T06:24:03;7.50;;;2.22;;
32172;SDS011;18679;45.190;5.722;2023-04-25T06:27:04;11.80;;;1.67;;
32172;SDS011;18679;45.190;5.722;2023-04-25T06:30:05;4.57;;;1.83;;
32172;SDS011;18679;45.190;5.722;2023-04-25T06:33:08;9.52;;;2.17;;
32172;SDS011;18679;45.190;5.722;2023-04-25T06:36:09;4.45;;;2.33;;
32172;SDS011;18679;45.190;5.722;2023-04-25T06:39:12;5.80;;;2.22;;
32172;SDS011;18679;45.190;5.722;2023-04-25T06:42:13;6.30;;;2.20;;
32172;SDS011;18679;45.190;5.722;2023-04-25T06:45:34;7.80;;;1.95;;
32172;SDS011;18679;45.190;5.722;2023-04-25T06:48:35;10.00;;;2.03;;
32172;SDS011;18679;45.190;5.722;2023-04-25T06:51:36;8.10;;;2.67;;
32172;SDS011;18679;45.190;5.722;2023-04-25T06:54:37;7.07;;;2.20;;
32172;SDS011;18679;45.190;5.722;2023-04-25T06:57:51;7.00;;;2.03;;
32172;SDS011;18679;45.190;5.722;2023-04-25T07:01:15;7.63;;;2.20;;
32172;SDS011;18679;45.190;5.722;2023-04-25T07:04:16;2.70;;;2.15;;
32172;SDS011;18679;45.190;5.722;2023-04-25T07:07:22;10.50;;;2.20;;
32172;SDS011;18679;45.190;5.722;2023-04-25T07:10:29;6.15;;;2.25;;
32172;SDS011;18679;45.190;5.722;2023-04-25T07:13:31;9.35;;;2.10;;
32172;SDS011;18679;45.190;5.722;2023-04-25T07:16:32;4.70;;;2.17;;
32172;SDS011;18679;45.190;5.722;2023-04-25T07:19:33;8.10;;;1.98;;
32172;SDS011;18679;45.190;5.722;2023-04-25T07:22:36;3.55;;;2.10;;
32172;SDS011;18679;45.190;5.722;2023-04-25T07:25:37;9.38;;;2.15;;
32172;SDS011;18679;45.190;5.722;2023-04-25T07:28:39;9.32;;;2.40;;
32172;SDS011;18679;45.190;5.722;2023-04-25T07:31:40;7.97;;;2.03;;
32172;SDS011;18679;45.190;5.722;2023-04-25T07:34:41;7.63;;;2.40;;
32172;SDS011;18679;45.190;5.722;2023-04-25T07:37:42;11.50;;;2.30;;
32172;SDS011;18679;45.190;5.722;2023-04-25T07:40:49;14.00;;;2.75;;
32172;SDS011;18679;45.190;5.722;2023-04-25T07:43:51;8.63;;;1.98;;
32172;SDS011;18679;45.190;5.722;2023-04-25T07:46:53;7.80;;;2.33;;
32172;SDS011;18679;45.190;5.722;2023-04-25T07:49:55;7.18;;;2.70;;
32172;SDS011;18679;45.190;5.722;2023-04-25T07:52:56;10.13;;;2.30;;
32172;SDS011;18679;45.190;5.722;2023-04-25T07:56:04;6.30;;;2.13;;
32172;SDS011;18679;45.190;5.722;2023-04-25T07:59:09;5.30;;;2.53;;
32172;SDS011;18679;45.190;5.722;2023-04-25T08:02:11;9.02;;;2.70;;
32172;SDS011;18679;45.190;5.722;2023-04-25T08:05:13;4.60;;;2.30;;
32172;SDS011;18679;45.190;5.722;2023-04-25T08:08:18;5.28;;;1.98;;
32172;SDS011;18679;45.190;5.722;2023-04-25T08:11:19;6.90;;;2.65;;
32172;SDS011;18679;45.190;5.722;2023-04-25T08:14:22;7.05;;;2.10;;
32172;SDS011;18679;45.190;5.722;2023-04-25T08:17:23;4.32;;;2.10;;
32172;SDS011;18679;45.190;5.722;2023-04-25T08:20:24;4.38;;;2.08;;
32172;SDS011;18679;45.190;5.722;2023-04-25T08:23:28;11.40;;;2.47;;
32172;SDS011;18679;45.190;5.722;2023-04-25T08:26:38;5.40;;;2.00;;
32172;SDS011;18679;45.190;5.722;2023-04-25T08:29:42;7.07;;;2.33;;
32172;SDS011;18679;45.190;5.722;2023-04-25T08:32:43;6.47;;;2.17;;
32172;SDS011;18679;45.190;5.722;2023-04-25T08:35:57;6.43;;;2.08;;
32172;SDS011;18679;45.190;5.722;2023-04-25T08:38:59;6.18;;;2.47;;
32172;SDS011;18679;45.190;5.722;2023-04-25T08:42:00;6.95;;;2.20;;
32172;SDS011;18679;45.190;5.722;2023-04-25T08:45:08;3.55;;;2.05;;
32172;SDS011;18679;45.190;5.722;2023-04-25T08:48:13;6.82;;;2.33;;
32172;SDS011;18679;45.190;5.722;2023-04-25T08:51:21;7.55;;;2.70;;
32172;SDS011;18679;45.190;5.722;2023-04-25T08:54:25;7.38;;;2.63;;
32172;SDS011;18679;45.190;5.722;2023-04-25T08:57:28;8.45;;;3.05;;
32172;SDS011;18679;45.190;5.722;2023-04-25T09:00:31;9.23;;;2.60;;
32172;SDS011;18679;45.190;5.722;2023-04-25T09:03:33;3.95;;;2.05;;
32172;SDS011;18679;45.190;5.722;2023-04-25T09:06:35;9.15;;;2.30;;
32172;SDS011;18679;45.190;5.722;2023-04-25T09:09:37;3.92;;;2.00;;
32172;SDS011;18679;45.190;5.722;2023-04-25T09:12:38;6.20;;;2.15;;
32172;SDS011;18679;45.190;5.722;2023-04-25T09:15:48;6.15;;;1.98;;
32172;SDS011;18679;45.190;5.722;2023-04-25T09:19:34;5.32;;;1.88;;
32172;SDS011;18679;45.190;5.722;2023-04-25T09:22:38;10.15;;;2.30;;
32172;SDS011;18679;45.190;5.722;2023-04-25T09:25:39;4.43;;;2.10;;
32172;SDS011;18679;45.190;5.722;2023-04-25T09:28:41;10.18;;;2.15;;
32172;SDS011;18679;45.190;5.722;2023-04-25T09:31:43;5.78;;;2.60;;
32172;SDS011;18679;45.190;5.722;2023-04-25T09:34:47;4.90;;;2.08;;
32172;SDS011;18679;45.190;5.722;2023-04-25T09:37:50;5.90;;;1.88;;
32172;SDS011;18679;45.190;5.722;2023-04-25T09:41:15;7.75;;;2.10;;
32172;SDS011;18679;45.190;5.722;2023-04-25T09:44:27;11.25;;;2.17;;
32172;SDS011;18679;45.190;5.722;2023-04-25T09:47:29;6.88;;;1.88;;
32172;SDS011;18679;45.190;5.722;2023-04-25T09:50:30;4.65;;;1.98;;
32172;SDS011;18679;45.190;5.722;2023-04-25T09:53:40;2.08;;;1.60;;
32172;SDS011;18679;45.190;5.722;2023-04-25T09:56:51;3.90;;;1.70;;
32172;SDS011;18679;45.190;5.722;2023-04-25T09:59:55;3.38;;;1.88;;
32172;SDS011;18679;45.190;5.722;2023-04-25T10:02:59;5.88;;;1.58;;
32172;SDS011;18679;45.190;5.722;2023-04-25T10:06:30;2.45;;;1.42;;
32172;SDS011;18679;45.190;5.722;2023-04-25T10:09:35;3.70;;;1.90;;
32172;SDS011;18679;45.190;5.722;2023-04-25T10:12:39;6.78;;;2.20;;
32172;SDS011;18679;45.190;5.722;2023-04-25T10:15:43;6.38;;;2.28;;
32172;SDS011;18679;45.190;5.722;2023-04-25T10:18:44;5.80;;;1.83;;
32172;SDS011;18679;45.190;5.722;2023-04-25T10:21:54;8.60;;;1.90;;
32172;SDS011;18679;45.190;5.722;2023-04-25T10:24:56;6.63;;;2.20;;
32172;SDS011;18679;45.190;5.722;2023-04-25T10:27:59;4.85;;;1.45;;
32172;SDS011;18679;45.190;5.722;2023-04-25T10:31:02;3.17;;;1.63;;
32172;SDS011;18679;45.190;5.722;2023-04-25T10:34:07;5.53;;;1.77;;
32172;SDS011;18679;45.190;5.722;2023-04-25T10:37:08;4.72;;;1.80;;
32172;SDS011;18679;45.190;5.722;2023-04-25T10:40:11;7.75;;;1.98;;
32172;SDS011;18679;45.190;5.722;2023-04-25T10:46:32;7.07;;;2.47;;
32172;SDS011;18679;45.190;5.722;2023-04-25T10:49:41;4.90;;;2.63;;
32172;SDS011;18679;45.190;5.722;2023-04-25T10:52:43;8.43;;;2.40;;
32172;SDS011;18679;45.190;5.722;2023-04-25T10:55:49;4.32;;;1.83;;
32172;SDS011;18679;45.190;5.722;2023-04-25T10:58:52;6.65;;;2.17;;
32172;SDS011;18679;45.190;5.722;2023-04-25T11:02:11;7.90;;;1.60;;
32172;SDS011;18679;45.190;5.722;2023-04-25T11:05:32;3.17;;;1.80;;
32172;SDS011;18679;45.190;5.722;2023-04-25T11:08:43;2.50;;;1.45;;
32172;SDS011;18679;45.190;5.722;2023-04-25T11:11:58;7.15;;;2.08;;
32172;SDS011;18679;45.190;5.722;2023-04-25T11:15:04;3.00;;;1.55;;
32172;SDS011;18679;45.190;5.722;2023-04-25T11:18:06;2.70;;;1.80;;
32172;SDS011;18679;45.190;5.722;2023-04-25T11:21:07;7.43;;;1.67;;
32172;SDS011;18679;45.190;5.722;2023-04-25T11:24:08;6.05;;;1.48;;
32172;SDS011;18679;45.190;5.722;2023-04-25T11:27:10;3.83;;;1.90;;
32172;SDS011;18679;45.190;5.722;2023-04-25T11:30:12;4.75;;;1.88;;
32172;SDS011;18679;45.190;5.722;2023-04-25T11:33:14;4.40;;;1.73;;
32172;SDS011;18679;45.190;5.722;2023-04-25T11:36:15;2.05;;;1.48;;
32172;SDS011;18679;45.190;5.722;2023-04-25T11:39:15;5.43;;;1.70;;
32172;SDS011;18679;45.190;5.722;2023-04-25T11:42:16;3.80;;;1.80;;
32172;SDS011;18679;45.190;5.722;2023-04-25T11:45:18;5.10;;;1.90;;
32172;SDS011;18679;45.190;5.722;2023-04-25T11:48:19;4.82;;;1.63;;
32172;SDS011;18679;45.190;5.722;2023-04-25T11:51:20;3.67;;;1.85;;
32172;SDS011;18679;45.190;5.722;2023-04-25T11:54:21;4.00;;;1.60;;
32172;SDS011;18679;45.190;5.722;2023-04-25T11:57:23;3.85;;;1.77;;
32172;SDS011;18679;45.190;5.722;2023-04-25T12:00:24;6.13;;;1.98;;
32172;SDS011;18679;45.190;5.722;2023-04-25T12:03:26;5.55;;;2.25;;
32172;SDS011;18679;45.190;5.722;2023-04-25T12:06:31;4.05;;;1.55;;
32172;SDS011;18679;45.190;5.722;2023-04-25T12:09:33;5.72;;;1.77;;
32172;SDS011;18679;45.190;5.722;2023-04-25T12:12:34;3.55;;;1.73;;
32172;SDS011;18679;45.190;5.722;2023-04-25T12:15:35;5.65;;;1.65;;
32172;SDS011;18679;45.190;5.722;2023-04-25T12:18:41;6.20;;;1.67;;
32172;SDS011;18679;45.190;5.722;2023-04-25T12:21:42;5.07;;;1.60;;
32172;SDS011;18679;45.190;5.722;2023-04-25T12:24:44;3.00;;;1.48;;
32172;SDS011;18679;45.190;5.722;2023-04-25T12:27:45;2.78;;;1.50;;
32172;SDS011;18679;45.190;5.722;2023-04-25T12:34:00;3.85;;;1.38;;
32172;SDS011;18679;45.190;5.722;2023-04-25T12:37:02;3.47;;;1.52;;
32172;SDS011;18679;45.190;5.722;2023-04-25T12:40:03;2.65;;;1.38;;
32172;SDS011;18679;45.190;5.722;2023-04-25T12:43:06;2.72;;;1.50;;
32172;SDS011;18679;45.190;5.722;2023-04-25T12:46:07;4.63;;;1.52;;
32172;SDS011;18679;45.190;5.722;2023-04-25T12:49:09;6.25;;;1.63;;
32172;SDS011;18679;45.190;5.722;2023-04-25T12:52:10;11.38;;;1.67;;
32172;SDS011;18679;45.190;5.722;2023-04-25T12:55:10;4.82;;;1.65;;
32172;SDS011;18679;45.190;5.722;2023-04-25T12:58:15;3.03;;;1.42;;
32172;SDS011;18679;45.190;5.722;2023-04-25T13:01:17;1.77;;;1.30;;
32172;SDS011;18679;45.190;5.722;2023-04-25T13:04:19;3.47;;;1.70;;
32172;SDS011;18679;45.190;5.722;2023-04-25T13:07:21;2.67;;;1.50;;
32172;SDS011;18679;45.190;5.722;2023-04-25T13:10:22;4.18;;;1.88;;
32172;SDS011;18679;45.190;5.722;2023-04-25T13:13:23;4.95;;;1.60;;
32172;SDS011;18679;45.190;5.722;2023-04-25T13:16:24;4.13;;;1.50;;
32172;SDS011;18679;45.190;5.722;2023-04-25T13:19:25;2.70;;;1.38;;
32172;SDS011;18679;45.190;5.722;2023-04-25T13:22:29;3.65;;;1.42;;
32172;SDS011;18679;45.190;5.722;2023-04-25T13:25:30;4.72;;;1.42;;
32172;SDS011;18679;45.190;5.722;2023-04-25T13:28:31;2.95;;;1.33;;
32172;SDS011;18679;45.190;5.722;2023-04-25T13:31:32;2.53;;;1.25;;
32172;SDS011;18679;45.190;5.722;2023-04-25T13:34:33;3.58;;;1.63;;
32172;SDS011;18679;45.190;5.722;2023-04-25T13:37:34;5.47;;;1.83;;
32172;SDS011;18679;45.190;5.722;2023-04-25T13:40:34;9.60;;;1.90;;
32172;SDS011;18679;45.190;5.722;2023-04-25T13:43:35;2.40;;;1.30;;
32172;SDS011;18679;45.190;5.722;2023-04-25T13:46:36;3.30;;;1.38;;
32172;SDS011;18679;45.190;5.722;2023-04-25T13:49:37;2.45;;;1.27;;
32172;SDS011;18679;45.190;5.722;2023-04-25T13:52:38;2.65;;;1.20;;
32172;SDS011;18679;45.190;5.722;2023-04-25T13:55:40;3.13;;;1.58;;
32172;SDS011;18679;45.190;5.722;2023-04-25T13:58:41;4.00;;;1.30;;
32172;SDS011;18679;45.190;5.722;2023-04-25T14:01:41;3.20;;;1.30;;
32172;SDS011;18679;45.190;5.722;2023-04-25T14:04:42;2.75;;;1.50;;
32172;SDS011;18679;45.190;5.722;2023-04-25T14:07:43;4.63;;;1.52;;
32172;SDS011;18679;45.190;5.722;2023-04-25T14:10:44;3.42;;;1.50;;
32172;SDS011;18679;45.190;5.722;2023-04-25T14:13:45;5.00;;;1.33;;
32172;SDS011;18679;45.190;5.722;2023-04-25T14:16:47;4.28;;;1.30;;
32172;SDS011;18679;45.190;5.722;2023-04-25T14:19:49;1.45;;;1.10;;
32172;SDS011;18679;45.190;5.722;2023-04-25T14:22:50;2.47;;;1.27;;
32172;SDS011;18679;45.190;5.722;2023-04-25T14:25:52;6.30;;;1.48;;
32172;SDS011;18679;45.190;5.722;2023-04-25T14:28:53;4.32;;;1.20;;
32172;SDS011;18679;45.190;5.722;2023-04-25T14:31:54;4.05;;;1.45;;
32172;SDS011;18679;45.190;5.722;2023-04-25T14:34:57;2.72;;;1.50;;
32172;SDS011;18679;45.190;5.722;2023-04-25T14:37:58;1.75;;;1.20;;
32172;SDS011;18679;45.190;5.722;2023-04-25T14:41:00;2.80;;;1.45;;
32172;SDS011;18679;45.190;5.722;2023-04-25T14:44:01;6.90;;;1.42;;
32172;SDS011;18679;45.190;5.722;2023-04-25T14:47:02;4.03;;;1.50;;
32172;SDS011;18679;45.190;5.722;2023-04-25T14:50:04;4.88;;;1.40;;
32172;SDS011;18679;45.190;5.722;2023-04-25T14:53:06;5.45;;;1.20;;
32172;SDS011;18679;45.190;5.722;2023-04-25T14:56:07;3.50;;;1.40;;
32172;SDS011;18679;45.190;5.722;2023-04-25T14:59:09;3.95;;;1.30;;
32172;SDS011;18679;45.190;5.722;2023-04-25T15:02:10;15.05;;;1.65;;
32172;SDS011;18679;45.190;5.722;2023-04-25T15:05:11;1.77;;;1.20;;
32172;SDS011;18679;45.190;5.722;2023-04-25T15:08:12;3.72;;;1.15;;
32172;SDS011;18679;45.190;5.722;2023-04-25T15:11:13;3.13;;;1.10;;
32172;SDS011;18679;45.190;5.722;2023-04-25T15:14:16;3.50;;;1.33;;
32172;SDS011;18679;45.190;5.722;2023-04-25T15:17:17;7.32;;;1.35;;
32172;SDS011;18679;45.190;5.722;2023-04-25T15:20:18;2.78;;;1.17;;
32172;SDS011;18679;45.190;5.722;2023-04-25T15:23:19;3.50;;;1.35;;
32172;SDS011;18679;45.190;5.722;2023-04-25T15:26:21;9.30;;;1.30;;
32172;SDS011;18679;45.190;5.722;2023-04-25T15:29:22;4.60;;;1.45;;
32172;SDS011;18679;45.190;5.722;2023-04-25T15:32:23;4.97;;;1.33;;
32172;SDS011;18679;45.190;5.722;2023-04-25T15:35:24;4.05;;;1.17;;
32172;SDS011;18679;45.190;5.722;2023-04-25T15:38:25;2.80;;;1.20;;
32172;SDS011;18679;45.190;5.722;2023-04-25T15:41:27;4.72;;;1.58;;
32172;SDS011;18679;45.190;5.722;2023-04-25T15:44:31;6.55;;;1.30;;
32172;SDS011;18679;45.190;5.722;2023-04-25T15:47:36;1.50;;;1.00;;
32172;SDS011;18679;45.190;5.722;2023-04-25T15:50:38;5.47;;;1.40;;
32172;SDS011;18679;45.190;5.722;2023-04-25T15:53:39;4.47;;;1.20;;
32172;SDS011;18679;45.190;5.722;2023-04-25T15:56:40;4.32;;;1.33;;
32172;SDS011;18679;45.190;5.722;2023-04-25T15:59:41;4.85;;;1.27;;
32172;SDS011;18679;45.190;5.722;2023-04-25T16:02:42;3.10;;;1.27;;
32172;SDS011;18679;45.190;5.722;2023-04-25T16:05:44;2.05;;;1.08;;
32172;SDS011;18679;45.190;5.722;2023-04-25T16:08:46;5.60;;;1.60;;
32172;SDS011;18679;45.190;5.722;2023-04-25T16:11:47;5.20;;;0.90;;
32172;SDS011;18679;45.190;5.722;2023-04-25T16:14:48;4.20;;;1.17;;
32172;SDS011;18679;45.190;5.722;2023-04-25T16:17:49;4.40;;;1.23;;
32172;SDS011;18679;45.190;5.722;2023-04-25T16:20:51;3.80;;;1.27;;
32172;SDS011;18679;45.190;5.722;2023-04-25T16:23:52;3.25;;;1.40;;
32172;SDS011;18679;45.190;5.722;2023-04-25T16:26:54;2.78;;;1.08;;
32172;SDS011;18679;45.190;5.722;2023-04-25T16:29:56;6.32;;;1.30;;
32172;SDS011;18679;45.190;5.722;2023-04-25T16:32:57;8.68;;;1.33;;
32172;SDS011;18679;45.190;5.722;2023-04-25T16:35:58;4.95;;;1.40;;
32172;SDS011;18679;45.190;5.722;2023-04-25T16:38:59;4.18;;;1.13;;
32172;SDS011;18679;45.190;5.722;2023-04-25T16:42:00;2.42;;;1.20;;
32172;SDS011;18679;45.190;5.722;2023-04-25T16:45:01;5.18;;;1.23;;
32172;SDS011;18679;45.190;5.722;2023-04-25T16:48:04;8.70;;;1.25;;
32172;SDS011;18679;45.190;5.722;2023-04-25T16:51:05;6.95;;;0.95;;
32172;SDS011;18679;45.190;5.722;2023-04-25T16:54:07;4.80;;;1.10;;
32172;SDS011;18679;45.190;5.722;2023-04-25T16:57:08;1.80;;;1.05;;
32172;SDS011;18679;45.190;5.722;2023-04-25T17:00:10;6.97;;;1.58;;
32172;SDS011;18679;45.190;5.722;2023-04-25T17:03:12;2.75;;;1.17;;
32172;SDS011;18679;45.190;5.722;2023-04-25T17:06:13;5.32;;;1.40;;
32172;SDS011;18679;45.190;5.722;2023-04-25T17:09:15;4.28;;;1.45;;
32172;SDS011;18679;45.190;5.722;2023-04-25T17:12:18;3.58;;;1.40;;
32172;SDS011;18679;45.190;5.722;2023-04-25T17:15:20;2.10;;;1.35;;
32172;SDS011;18679;45.190;5.722;2023-04-25T17:18:22;4.90;;;1.20;;
32172;SDS011;18679;45.190;5.722;2023-04-25T17:21:23;6.15;;;1.45;;
32172;SDS011;18679;45.190;5.722;2023-04-25T17:24:24;2.42;;;1.58;;
32172;SDS011;18679;45.190;5.722;2023-04-25T17:27:25;3.50;;;1.20;;
32172;SDS011;18679;45.190;5.722;2023-04-25T17:30:26;6.03;;;1.15;;
32172;SDS011;18679;45.190;5.722;2023-04-25T17:33:29;2.13;;;1.23;;
32172;SDS011;18679;45.190;5.722;2023-04-25T17:36:30;3.10;;;1.33;;
32172;SDS011;18679;45.190;5.722;2023-04-25T17:39:32;2.70;;;1.20;;
32172;SDS011;18679;45.190;5.722;2023-04-25T17:42:32;3.92;;;1.15;;
32172;SDS011;18679;45.190;5.722;2023-04-25T17:45:35;2.53;;;1.38;;
32172;SDS011;18679;45.190;5.722;2023-04-25T17:48:36;4.97;;;1.40;;
32172;SDS011;18679;45.190;5.722;2023-04-25T17:51:37;8.13;;;1.50;;
32172;SDS011;18679;45.190;5.722;2023-04-25T17:54:38;4.68;;;1.60;;
32172;SDS011;18679;45.190;5.722;2023-04-25T17:57:38;4.43;;;1.52;;
32172;SDS011;18679;45.190;5.722;2023-04-25T18:00:39;6.05;;;1.70;;
32172;SDS011;18679;45.190;5.722;2023-04-25T18:03:40;6.55;;;1.77;;
32172;SDS011;18679;45.190;5.722;2023-04-25T18:06:44;9.30;;;2.10;;
32172;SDS011;18679;45.190;5.722;2023-04-25T18:09:45;7.28;;;1.85;;
32172;SDS011;18679;45.190;5.722;2023-04-25T18:12:46;6.50;;;1.77;;
32172;SDS011;18679;45.190;5.722;2023-04-25T18:15:47;4.88;;;1.58;;
32172;SDS011;18679;45.190;5.722;2023-04-25T18:18:48;5.43;;;1.40;;
32172;SDS011;18679;45.190;5.722;2023-04-25T18:21:53;3.08;;;1.38;;
32172;SDS011;18679;45.190;5.722;2023-04-25T18:24:54;4.95;;;1.33;;
32172;SDS011;18679;45.190;5.722;2023-04-25T18:27:55;5.10;;;1.70;;
32172;SDS011;18679;45.190;5.722;2023-04-25T18:30:58;3.47;;;1.50;;
32172;SDS011;18679;45.190;5.722;2023-04-25T18:34:00;3.45;;;1.80;;